createdAt,value
2018-08-06T00:00:23.130Z,3.40
2018-08-06T00:02:58.791Z,3.47
2018-08-06T00:05:33.689Z,3.70
2018-08-06T00:08:10.061Z,4.27
2018-08-06T00:10:46.238Z,3.10
2018-08-06T00:13:20.630Z,4.07
2018-08-06T00:15:55.095Z,3.63
2018-08-06T00:18:29.517Z,3.87
2018-08-06T00:21:06.272Z,3.40
2018-08-06T00:23:40.654Z,3.40
2018-08-06T00:26:16.554Z,3.70
2018-08-06T00:28:53.323Z,4.30
2018-08-06T00:31:27.719Z,3.57
2018-08-06T00:34:03.695Z,3.90
2018-08-06T00:36:38.057Z,3.90
2018-08-06T00:39:12.764Z,3.70
2018-08-06T00:41:49.207Z,3.77
2018-08-06T00:44:24.019Z,3.77
2018-08-06T00:46:59.991Z,3.93
2018-08-06T00:49:34.726Z,3.90
2018-08-06T00:52:10.427Z,3.57
2018-08-06T00:54:46.439Z,3.63
2018-08-06T00:57:30.472Z,3.80
2018-08-06T01:00:07.487Z,4.63
2018-08-06T01:02:43.385Z,3.50
2018-08-06T01:05:18.284Z,4.50
2018-08-06T01:07:54.589Z,3.63
2018-08-06T01:10:29.147Z,4.03
2018-08-06T01:13:03.523Z,3.80
2018-08-06T01:15:37.974Z,4.60
2018-08-06T01:18:12.435Z,3.70
2018-08-06T01:20:48.555Z,3.77
2018-08-06T01:23:23.124Z,4.70
2018-08-06T01:25:59.246Z,5.37
2018-08-06T01:28:35.070Z,3.90
2018-08-06T01:31:09.450Z,4.33
2018-08-06T01:33:45.551Z,3.97
2018-08-06T01:36:19.954Z,4.53
2018-08-06T01:38:56.074Z,3.80
2018-08-06T01:41:32.463Z,4.20
2018-08-06T01:44:06.999Z,4.60
2018-08-06T01:46:43.060Z,4.23
2018-08-06T01:49:18.880Z,4.03
2018-08-06T01:51:54.639Z,4.00
2018-08-06T01:54:30.736Z,4.10
2018-08-06T01:57:05.072Z,4.23
2018-08-06T01:59:39.462Z,4.50
2018-08-06T02:02:15.390Z,4.37
2018-08-06T02:04:49.839Z,4.20
2018-08-06T02:07:32.259Z,4.20
2018-08-06T02:10:09.027Z,4.30
2018-08-06T02:12:44.385Z,4.10
2018-08-06T02:15:18.989Z,4.70
2018-08-06T02:17:53.691Z,4.50
2018-08-06T02:20:30.057Z,4.33
2018-08-06T02:23:06.135Z,4.10
2018-08-06T02:25:42.465Z,3.73
2018-08-06T02:28:18.036Z,4.40
2018-08-06T02:30:52.587Z,3.80
2018-08-06T02:33:38.796Z,4.10
2018-08-06T02:36:13.153Z,4.40
2018-08-06T02:38:48.845Z,4.40
2018-08-06T02:41:25.089Z,4.97
2018-08-06T02:43:59.643Z,4.60
2018-08-06T02:46:34.368Z,4.90
2018-08-06T02:49:10.452Z,4.43
2018-08-06T02:51:46.470Z,4.80
2018-08-06T02:54:22.326Z,4.53
2018-08-06T02:56:57.095Z,4.30
2018-08-06T02:59:31.435Z,5.23
2018-08-06T03:02:06.204Z,4.17
2018-08-06T03:04:40.540Z,4.57
2018-08-06T03:07:15.252Z,4.40
2018-08-06T03:09:51.328Z,4.73
2018-08-06T03:12:26.368Z,4.77
2018-08-06T03:15:01.259Z,4.13
2018-08-06T03:17:36.055Z,4.87
2018-08-06T03:22:53.683Z,4.37
2018-08-06T03:25:32.865Z,4.60
2018-08-06T03:28:08.644Z,4.60
2018-08-06T03:30:43.011Z,4.53
2018-08-06T03:33:17.699Z,4.83
2018-08-06T03:35:53.870Z,4.60
2018-08-06T03:38:30.696Z,4.13
2018-08-06T03:41:05.103Z,5.27
2018-08-06T03:43:39.639Z,4.90
2018-08-06T03:46:14.095Z,4.80
2018-08-06T03:48:54.256Z,4.93
2018-08-06T03:51:30.510Z,4.40
2018-08-06T03:54:06.515Z,5.67
2018-08-06T03:56:41.083Z,4.67
2018-08-06T03:59:15.560Z,4.90
2018-08-06T04:01:51.547Z,4.90
2018-08-06T04:04:27.366Z,4.73
2018-08-06T04:07:03.507Z,5.10
2018-08-06T04:09:39.565Z,4.97
2018-08-06T04:12:14.099Z,5.20
2018-08-06T04:14:48.713Z,4.43
2018-08-06T04:17:24.966Z,4.63
2018-08-06T04:19:59.379Z,5.77
2018-08-06T04:22:34.911Z,5.33
2018-08-06T04:25:09.296Z,5.07
2018-08-06T04:27:45.215Z,4.73
2018-08-06T04:30:19.704Z,5.43
2018-08-06T04:32:54.321Z,4.50
2018-08-06T04:35:30.122Z,5.50
2018-08-06T04:38:05.995Z,5.47
2018-08-06T04:40:40.793Z,5.40
2018-08-06T04:43:15.160Z,5.83
2018-08-06T04:45:49.472Z,5.00
2018-08-06T04:48:25.464Z,5.67
2018-08-06T04:51:01.756Z,5.30
2018-08-06T04:56:18.157Z,5.43
2018-08-06T04:58:52.859Z,5.30
2018-08-06T05:01:28.668Z,4.73
2018-08-06T05:04:03.191Z,5.30
2018-08-06T05:06:38.027Z,5.70
2018-08-06T05:09:19.604Z,5.70
2018-08-06T05:11:54.024Z,4.47
2018-08-06T05:14:30.210Z,4.43
2018-08-06T05:17:05.156Z,5.00
2018-08-06T05:19:39.587Z,4.57
2018-08-06T05:22:15.291Z,4.90
2018-08-06T05:24:50.014Z,5.23
2018-08-06T05:27:26.423Z,7.67
2018-08-06T05:30:00.871Z,5.20
2018-08-06T05:32:35.648Z,4.53
2018-08-06T05:35:11.923Z,5.10
2018-08-06T05:37:47.979Z,5.30
2018-08-06T05:40:22.523Z,4.70
2018-08-06T05:42:57.961Z,4.33
2018-08-06T05:45:32.843Z,4.40
2018-08-06T05:48:07.707Z,5.00
2018-08-06T05:50:44.005Z,4.97
2018-08-06T05:53:18.799Z,5.10
2018-08-06T05:55:54.663Z,4.60
2018-08-06T05:58:29.151Z,4.50
2018-08-06T06:01:09.231Z,4.47
2018-08-06T06:03:43.690Z,4.47
2018-08-06T06:06:18.136Z,4.90
2018-08-06T06:08:53.965Z,4.90
2018-08-06T06:11:28.458Z,4.77
2018-08-06T06:14:04.913Z,4.80
2018-08-06T06:16:39.181Z,4.77
2018-08-06T06:19:13.608Z,4.70
2018-08-06T06:21:49.300Z,4.47
2018-08-06T06:24:24.030Z,4.10
2018-08-06T06:26:59.563Z,4.00
2018-08-06T06:29:35.511Z,4.40
2018-08-06T06:32:10.259Z,4.20
2018-08-06T06:34:45.955Z,4.57
2018-08-06T06:37:21.362Z,3.80
2018-08-06T06:39:55.624Z,4.47
2018-08-06T06:43:54.488Z,4.07
2018-08-06T06:46:29.038Z,3.57
2018-08-06T06:49:05.323Z,4.10
2018-08-06T06:51:41.334Z,4.10
2018-08-06T06:54:17.221Z,4.70
2018-08-06T06:56:51.603Z,4.50
2018-08-06T06:59:27.287Z,4.20
2018-08-06T07:02:03.557Z,4.47
2018-08-06T07:04:37.999Z,3.97
2018-08-06T07:07:12.999Z,4.10
2018-08-06T07:09:49.063Z,3.20
2018-08-06T07:12:23.585Z,3.50
2018-08-06T07:14:58.009Z,3.80
2018-08-06T07:17:33.874Z,4.50
2018-08-06T07:20:08.286Z,3.70
2018-08-06T07:22:43.875Z,4.30
2018-08-06T07:25:18.567Z,3.17
2018-08-06T07:27:54.223Z,3.60
2018-08-06T07:30:29.025Z,3.33
2018-08-06T07:33:03.379Z,3.37
2018-08-06T07:35:40.048Z,4.30
2018-08-06T07:38:15.883Z,4.03
2018-08-06T07:40:50.579Z,3.57
2018-08-06T07:43:25.031Z,3.93
2018-08-06T07:45:59.642Z,4.03
2018-08-06T07:48:51.182Z,4.30
2018-08-06T07:51:27.198Z,3.97
2018-08-06T07:54:03.419Z,4.50
2018-08-06T07:56:37.863Z,3.20
2018-08-06T07:59:12.260Z,3.30
2018-08-06T08:01:48.406Z,3.33
2018-08-06T08:04:24.479Z,3.30
2018-08-06T08:07:00.620Z,3.90
2018-08-06T08:09:36.388Z,2.90
2018-08-06T08:12:11.926Z,3.10
2018-08-06T08:14:46.600Z,3.50
2018-08-06T08:17:21.115Z,3.17
2018-08-06T08:19:55.969Z,3.70
2018-08-06T08:22:32.076Z,2.87
2018-08-06T08:25:07.355Z,3.70
2018-08-06T08:27:43.451Z,3.30
2018-08-06T08:30:18.428Z,3.57
2018-08-06T08:32:53.327Z,2.97
2018-08-06T08:35:29.861Z,3.20
2018-08-06T08:38:05.392Z,3.00
2018-08-06T08:40:40.116Z,3.30
2018-08-06T08:43:14.540Z,2.93
2018-08-06T08:45:49.128Z,3.20
2018-08-06T08:48:24.995Z,3.50
2018-08-06T08:51:01.187Z,3.60
2018-08-06T08:53:37.006Z,3.67
2018-08-06T08:56:13.347Z,3.20
2018-08-06T08:58:47.826Z,3.20
2018-08-06T09:01:23.173Z,3.33
2018-08-06T09:03:58.541Z,3.67
2018-08-06T09:06:34.081Z,3.47
2018-08-06T09:09:12.051Z,3.23
2018-08-06T09:11:46.297Z,3.00
2018-08-06T09:14:20.605Z,3.27
2018-08-06T09:16:54.918Z,2.90
2018-08-06T09:19:29.530Z,3.50
2018-08-06T09:22:05.138Z,3.10
2018-08-06T09:24:39.543Z,3.10
2018-08-06T09:27:15.142Z,3.07
2018-08-06T09:29:49.372Z,3.30
2018-08-06T09:32:23.770Z,3.87
2018-08-06T09:34:59.322Z,3.73
2018-08-06T09:37:34.895Z,3.30
2018-08-06T09:40:11.706Z,3.23
2018-08-06T09:42:47.098Z,2.97
2018-08-06T09:45:22.379Z,3.13
2018-08-06T09:48:12.685Z,3.03
2018-08-06T09:50:56.070Z,3.40
2018-08-06T09:53:33.452Z,3.23
2018-08-06T09:56:08.055Z,3.47
2018-08-06T09:58:43.814Z,3.10
2018-08-06T10:01:25.428Z,3.70
2018-08-06T10:04:01.305Z,3.17
2018-08-06T10:06:41.405Z,3.57
2018-08-06T10:09:17.154Z,3.13
2018-08-06T10:11:51.627Z,3.20
2018-08-06T10:14:27.088Z,2.90
2018-08-06T10:17:01.962Z,3.50
2018-08-06T10:19:36.175Z,3.53
2018-08-06T10:22:12.060Z,3.37
2018-08-06T10:24:48.306Z,3.37
2018-08-06T10:27:24.291Z,3.07
2018-08-06T10:29:58.794Z,3.47
2018-08-06T10:32:33.178Z,3.07
2018-08-06T10:35:09.818Z,3.33
2018-08-06T10:37:45.379Z,3.27
2018-08-06T10:40:22.839Z,3.43
2018-08-06T10:42:57.947Z,3.00
2018-08-06T10:45:32.411Z,2.90
2018-08-06T10:48:07.734Z,3.07
2018-08-06T10:50:45.232Z,4.07
2018-08-06T10:53:23.201Z,2.60
2018-08-06T10:56:00.354Z,3.43
2018-08-06T10:58:36.044Z,3.43
2018-08-06T11:19:27.979Z,2.93
2018-08-06T12:11:13.632Z,2.30
2018-08-06T12:13:56.964Z,3.00
2018-08-06T12:16:32.032Z,2.67
2018-08-06T12:19:10.132Z,2.53
2018-08-06T12:21:46.359Z,2.83
2018-08-06T12:24:21.014Z,2.30
2018-08-06T12:26:56.776Z,2.80
2018-08-06T12:29:31.215Z,2.20
2018-08-06T12:32:05.788Z,3.17
2018-08-06T12:49:40.543Z,3.10
2018-08-06T13:10:38.108Z,2.50
2018-08-06T13:13:14.489Z,2.73
2018-08-06T13:15:53.374Z,3.10
2018-08-06T13:18:30.346Z,2.20
2018-08-06T13:21:24.877Z,2.70
2018-08-06T13:24:02.349Z,2.60
2018-08-06T13:26:39.376Z,2.80
2018-08-06T13:29:18.417Z,2.80
2018-08-06T13:31:55.370Z,2.60
2018-08-06T13:34:37.531Z,2.90
2018-08-06T13:37:14.237Z,2.93
2018-08-06T13:39:49.259Z,2.90
2018-08-06T13:42:24.085Z,2.57
2018-08-06T13:44:58.202Z,3.10
2018-08-06T13:56:31.431Z,2.50
2018-08-06T13:59:17.236Z,2.73
2018-08-06T14:01:54.461Z,2.53
2018-08-06T14:34:00.775Z,2.90
2018-08-06T14:36:38.261Z,3.00
2018-08-06T14:39:20.641Z,3.40
2018-08-06T14:41:55.726Z,3.77
2018-08-06T14:44:38.483Z,3.33
2018-08-06T14:47:12.735Z,3.13
2018-08-06T14:49:49.103Z,3.07
2018-08-06T14:52:25.315Z,3.20
2018-08-06T14:55:04.726Z,3.40
2018-08-06T14:57:42.237Z,3.20
2018-08-06T15:00:21.828Z,2.90
2018-08-06T15:02:57.095Z,3.33
2018-08-06T15:05:31.430Z,3.50
2018-08-06T15:08:07.129Z,2.87
2018-08-06T15:10:42.918Z,2.57
2018-08-06T15:13:17.151Z,3.40
2018-08-06T15:15:51.356Z,3.03
2018-08-06T15:18:25.516Z,2.83
2018-08-06T15:21:01.423Z,2.70
2018-08-06T15:23:35.592Z,3.53
2018-08-06T15:40:58.399Z,3.07
2018-08-06T16:02:54.765Z,2.93
2018-08-06T16:35:16.320Z,3.50
2018-08-06T16:37:55.027Z,3.20
2018-08-06T18:39:23.476Z,3.70
2018-08-06T19:22:09.522Z,4.07
2018-08-06T19:24:49.983Z,4.80
2018-08-06T19:27:26.040Z,4.40
2018-08-06T19:30:00.629Z,3.90
2018-08-06T19:32:36.407Z,3.90
2018-08-06T19:35:13.065Z,4.00
2018-08-06T19:37:54.505Z,4.27
2018-08-06T19:40:33.625Z,5.13
2018-08-06T19:46:15.872Z,5.17
2018-08-06T19:48:52.785Z,3.77
2018-08-06T19:51:28.554Z,4.60
2018-08-06T19:54:04.543Z,4.30
2018-08-06T19:56:38.802Z,4.70
2018-08-06T19:59:17.694Z,4.60
2018-08-06T20:01:59.476Z,4.60
2018-08-06T20:04:35.412Z,4.63
